Time,TemperatureF,DewpointF,PressureIn,WindDirection,WindDirectionDegrees,WindSpeedMPH,WindSpeedGustMPH,Humidity,HourlyPrecipIn,Conditions,Clouds,dailyrainin,SoftwareType,DateUTC
2013-02-18 00:02:00,14.0,0.0,29.72,WNW,293,5.0,7.0,54,0.00,,,0.00,,2013-02-18 05:02:00,
2013-02-18 00:11:00,14.0,0.0,29.72,WNW,293,5.0,7.0,54,0.00,,,0.00,,2013-02-18 05:11:00,
2013-02-18 00:21:00,13.0,0.0,29.72,WNW,292,6.0,6.0,55,0.00,,,0.00,,2013-02-18 05:21:00,
2013-02-18 00:32:00,13.0,0.0,29.73,NW,314,7.0,13.0,55,0.00,,,0.00,,2013-02-18 05:32:00,
2013-02-18 00:42:00,13.0,0.0,29.73,NW,314,7.0,13.0,55,0.00,,,0.00,,2013-02-18 05:42:00,
2013-02-18 00:52:00,13.0,0.0,29.73,NW,309,5.0,11.0,55,0.00,,,0.00,,2013-02-18 05:52:00,
2013-02-18 01:02:00,13.0,0.0,29.74,WNW,293,4.0,9.0,55,0.00,,,0.00,,2013-02-18 06:02:00,
2013-02-18 01:11:00,13.0,0.0,29.74,WNW,293,4.0,9.0,55,0.00,,,0.00,,2013-02-18 06:11:00,
2013-02-18 01:21:00,13.0,0.0,29.74,NW,304,8.0,9.0,55,0.00,,,0.00,,2013-02-18 06:21:00,
2013-02-18 01:32:00,13.0,0.0,29.75,West,270,4.0,9.0,55,0.00,,,0.00,,2013-02-18 06:32:00,
2013-02-18 01:42:00,13.0,0.0,29.76,NW,321,6.0,7.0,55,0.00,,,0.00,,2013-02-18 06:42:00,
2013-02-18 01:52:00,13.0,0.0,29.76,NW,321,6.0,7.0,55,0.00,,,0.00,,2013-02-18 06:52:00,
2013-02-18 02:01:00,13.0,0.0,29.76,NW,307,9.0,11.0,55,0.00,,,0.00,,2013-02-18 07:01:00,
2013-02-18 02:11:00,13.0,0.0,29.76,NW,307,9.0,11.0,55,0.00,,,0.00,,2013-02-18 07:11:00,
2013-02-18 02:22:00,13.0,0.0,29.77,West,263,6.0,10.0,55,0.00,,,0.00,,2013-02-18 07:22:00,
2013-02-18 02:32:00,13.0,0.0,29.77,NNW,327,5.0,8.0,55,0.00,,,0.00,,2013-02-18 07:32:00,
2013-02-18 02:42:00,13.0,0.0,29.77,NNW,327,5.0,8.0,55,0.00,,,0.00,,2013-02-18 07:42:00,
2013-02-18 02:52:00,13.0,0.0,29.78,WNW,298,6.0,8.0,55,0.00,,,0.00,,2013-02-18 07:52:00,
2013-02-18 03:01:00,13.0,0.0,29.79,WNW,288,5.0,9.0,55,0.00,,,0.00,,2013-02-18 08:01:00,
2013-02-18 03:11:00,13.0,0.0,29.79,NW,314,7.0,10.0,55,0.00,,,0.00,,2013-02-18 08:11:00,
2013-02-18 03:21:00,13.0,0.0,29.79,NW,314,7.0,10.0,55,0.00,,,0.00,,2013-02-18 08:21:00,
2013-02-18 03:32:00,13.0,0.0,29.79,NW,317,9.0,10.0,55,0.00,,,0.00,,2013-02-18 08:32:00,
2013-02-18 03:42:00,13.0,0.0,29.79,NW,317,9.0,10.0,55,0.00,,,0.00,,2013-02-18 08:42:00,
2013-02-18 03:52:00,13.0,0.0,29.79,West,278,6.0,8.0,55,0.00,,,0.00,,2013-02-18 08:52:00,
2013-02-18 04:03:00,13.0,0.0,29.80,NW,306,7.0,8.0,55,0.00,,,0.00,,2013-02-18 09:03:00,
2013-02-18 04:11:00,13.0,0.0,29.80,NW,306,7.0,8.0,55,0.00,,,0.00,,2013-02-18 09:11:00,
2013-02-18 04:22:00,13.0,0.0,29.80,NNW,341,7.0,11.0,55,0.00,,,0.00,,2013-02-18 09:22:00,
2013-02-18 04:32:00,13.0,0.0,29.82,WNW,290,6.0,10.0,55,0.00,,,0.00,,2013-02-18 09:32:00,
2013-02-18 04:42:00,13.0,0.0,29.82,WNW,290,6.0,10.0,55,0.00,,,0.00,,2013-02-18 09:42:00,
2013-02-18 04:52:00,13.0,0.0,29.83,NNW,331,6.0,10.0,55,0.00,,,0.00,,2013-02-18 09:52:00,
2013-02-18 05:01:00,13.0,0.0,29.84,NW,305,5.0,10.0,55,0.00,,,0.00,,2013-02-18 10:01:00,
2013-02-18 05:11:00,13.0,0.0,29.84,NW,305,5.0,10.0,55,0.00,,,0.00,,2013-02-18 10:11:00,
2013-02-18 05:22:00,13.0,0.0,29.85,NW,326,7.0,7.0,56,0.00,,,0.00,,2013-02-18 10:22:00,
2013-02-18 05:32:00,13.0,0.0,29.85,NW,326,7.0,7.0,56,0.00,,,0.00,,2013-02-18 10:32:00,
2013-02-18 05:42:00,13.0,0.0,29.85,NW,326,7.0,7.0,56,0.00,,,0.00,,2013-02-18 10:42:00,
2013-02-18 05:53:00,13.0,0.0,29.87,NW,319,6.0,8.0,55,0.00,,,0.00,,2013-02-18 10:53:00,
2013-02-18 06:01:00,13.0,0.0,29.87,WNW,293,5.0,6.0,56,0.00,,,0.00,,2013-02-18 11:01:00,
2013-02-18 06:12:00,13.0,0.0,29.87,WNW,293,5.0,6.0,56,0.00,,,0.00,,2013-02-18 11:12:00,
2013-02-18 06:22:00,13.0,0.0,29.88,NNE,23,10.0,10.0,56,0.00,,,0.00,,2013-02-18 11:22:00,
2013-02-18 06:32:00,13.0,0.0,29.90,North,0,9.0,9.0,56,0.00,,,0.00,,2013-02-18 11:32:00,
2013-02-18 06:42:00,13.0,0.0,29.90,North,0,9.0,9.0,56,0.00,,,0.00,,2013-02-18 11:42:00,
2013-02-18 06:52:00,12.0,-1.0,29.91,NW,305,6.0,9.0,56,0.00,,,0.00,,2013-02-18 11:52:00,
2013-02-18 07:02:00,12.0,-1.0,29.92,NW,304,3.0,10.0,56,0.00,,,0.00,,2013-02-18 12:02:00,
2013-02-18 07:12:00,12.0,-1.0,29.92,NW,304,3.0,10.0,56,0.00,,,0.00,,2013-02-18 12:12:00,
2013-02-18 07:22:00,12.0,0.0,29.92,NW,316,6.0,6.0,57,0.00,,,0.00,,2013-02-18 12:22:00,
2013-02-18 07:32:00,12.0,0.0,29.94,NNW,330,6.0,9.0,57,0.00,,,0.00,,2013-02-18 12:32:00,
2013-02-18 07:42:00,12.0,0.0,29.94,NNW,330,6.0,9.0,57,0.00,,,0.00,,2013-02-18 12:42:00,
2013-02-18 07:52:00,13.0,0.0,29.94,NW,315,6.0,7.0,56,0.00,,,0.00,,2013-02-18 12:52:00,
2013-02-18 08:03:00,13.0,0.0,29.96,NNE,29,8.0,12.0,56,0.00,,,0.00,,2013-02-18 13:03:00,
2013-02-18 08:12:00,13.0,0.0,29.96,NNE,29,8.0,12.0,56,0.00,,,0.00,,2013-02-18 13:12:00,
2013-02-18 08:22:00,14.0,1.0,29.97,North,0,5.0,7.0,55,0.00,,,0.00,,2013-02-18 13:22:00,
2013-02-18 08:32:00,15.0,1.0,29.97,WNW,295,3.0,9.0,54,0.00,,,0.00,,2013-02-18 13:32:00,
2013-02-18 08:42:00,15.0,1.0,29.97,WNW,295,3.0,9.0,54,0.00,,,0.00,,2013-02-18 13:42:00,
2013-02-18 08:53:00,16.0,2.0,29.98,NW,319,5.0,8.0,53,0.00,,,0.00,,2013-02-18 13:53:00,
2013-02-18 09:02:00,16.0,2.0,29.98,WNW,286,6.0,9.0,53,0.00,,,0.00,,2013-02-18 14:02:00,
2013-02-18 09:11:00,16.0,2.0,29.98,WNW,286,6.0,9.0,53,0.00,,,0.00,,2013-02-18 14:11:00,
2013-02-18 09:22:00,17.0,2.0,29.99,West,278,5.0,10.0,52,0.00,,,0.00,,2013-02-18 14:22:00,
2013-02-18 09:33:00,18.0,3.0,29.98,West,279,5.0,9.0,51,0.00,,,0.00,,2013-02-18 14:33:00,
2013-02-18 09:42:00,18.0,3.0,29.98,West,279,5.0,9.0,51,0.00,,,0.00,,2013-02-18 14:42:00,
2013-02-18 09:53:00,18.0,3.0,29.99,WNW,283,4.0,9.0,50,0.00,,,0.00,,2013-02-18 14:53:00,
2013-02-18 10:02:00,19.0,3.0,29.99,NNW,335,6.0,10.0,49,0.00,,,0.00,,2013-02-18 15:02:00,
2013-02-18 10:12:00,19.0,3.0,29.99,NNW,335,6.0,10.0,49,0.00,,,0.00,,2013-02-18 15:12:00,
2013-02-18 10:22:00,20.0,4.0,29.99,West,274,6.0,8.0,48,0.00,,,0.00,,2013-02-18 15:22:00,
2013-02-18 10:32:00,20.0,4.0,29.99,West,274,6.0,8.0,48,0.00,,,0.00,,2013-02-18 15:32:00,
2013-02-18 10:42:00,20.0,4.0,29.99,West,274,6.0,8.0,48,0.00,,,0.00,,2013-02-18 15:42:00,
2013-02-18 10:52:00,21.0,4.0,29.99,NNW,341,7.0,11.0,47,0.00,,,0.00,,2013-02-18 15:52:00,
2013-02-18 11:03:00,23.0,4.0,30.00,North,359,7.0,13.0,44,0.00,,,0.00,,2013-02-18 16:03:00,
2013-02-18 11:12:00,23.0,4.0,30.00,North,359,7.0,13.0,44,0.00,,,0.00,,2013-02-18 16:12:00,
2013-02-18 11:22:00,25.0,5.0,30.01,WNW,289,6.0,8.0,42,0.00,,,0.00,,2013-02-18 16:22:00,
2013-02-18 11:32:00,26.0,4.0,30.03,North,0,7.0,11.0,39,0.00,,,0.00,,2013-02-18 16:32:00,
2013-02-18 11:42:00,26.0,4.0,30.03,North,0,7.0,11.0,39,0.00,,,0.00,,2013-02-18 16:42:00,
2013-02-18 11:52:00,34.0,10.0,30.03,WNW,293,4.0,11.0,36,0.00,,,0.00,,2013-02-18 16:52:00,
2013-02-18 12:04:00,39.0,10.0,30.03,NW,315,7.0,10.0,30,0.00,,,0.00,,2013-02-18 17:04:00,
2013-02-18 12:22:00,40.0,10.0,30.03,NNE,15,5.0,11.0,29,0.00,,,0.00,,2013-02-18 17:22:00,
2013-02-18 12:32:00,38.0,9.0,30.03,WSW,248,1.0,9.0,29,0.00,,,0.00,,2013-02-18 17:32:00,
2013-02-18 12:53:00,39.0,9.0,30.03,WSW,248,8.0,8.0,29,0.00,,,0.00,,2013-02-18 17:53:00,
2013-02-18 13:02:00,35.0,7.0,30.03,WSW,248,5.0,9.0,30,0.00,,,0.00,,2013-02-18 18:02:00,
2013-02-18 13:32:00,30.0,4.0,30.03,WSW,248,7.0,9.0,33,0.00,,,0.00,,2013-02-18 18:32:00,
2013-02-18 13:42:00,30.0,4.0,30.03,WSW,248,7.0,9.0,33,0.00,,,0.00,,2013-02-18 18:42:00,
2013-02-18 13:52:00,29.0,3.0,30.03,WSW,248,5.0,9.0,32,0.00,,,0.00,,2013-02-18 18:52:00,
2013-02-18 14:03:00,28.0,3.0,30.03,WSW,248,4.0,12.0,34,0.00,,,0.00,,2013-02-18 19:03:00,
2013-02-18 14:12:00,28.0,3.0,30.03,WSW,248,4.0,12.0,34,0.00,,,0.00,,2013-02-18 19:12:00,
2013-02-18 14:22:00,28.0,4.0,30.03,WSW,248,5.0,8.0,35,0.00,,,0.00,,2013-02-18 19:22:00,
2013-02-18 14:33:00,29.0,4.0,30.03,NW,312,5.0,9.0,34,0.00,,,0.00,,2013-02-18 19:33:00,
2013-02-18 14:42:00,29.0,4.0,30.03,NW,312,5.0,9.0,34,0.00,,,0.00,,2013-02-18 19:42:00,
2013-02-18 14:52:00,29.0,4.0,30.03,WNW,284,5.0,9.0,34,0.00,,,0.00,,2013-02-18 19:52:00,
2013-02-18 15:02:00,29.0,4.0,30.03,WNW,293,4.0,8.0,34,0.00,,,0.00,,2013-02-18 20:02:00,
2013-02-18 15:12:00,29.0,4.0,30.03,WNW,293,4.0,8.0,34,0.00,,,0.00,,2013-02-18 20:12:00,
2013-02-18 15:23:00,32.0,6.0,30.04,WNW,293,6.0,8.0,33,0.00,,,0.00,,2013-02-18 20:23:00,
2013-02-18 15:33:00,31.0,5.0,30.03,NW,310,5.0,10.0,32,0.00,,,0.00,,2013-02-18 20:33:00,
2013-02-18 15:42:00,31.0,5.0,30.03,NW,310,5.0,10.0,32,0.00,,,0.00,,2013-02-18 20:42:00,
2013-02-18 15:53:00,31.0,5.0,30.04,WNW,283,6.0,8.0,32,0.00,,,0.00,,2013-02-18 20:53:00,
2013-02-18 16:03:00,31.0,5.0,30.04,WNW,302,6.0,7.0,32,0.00,,,0.00,,2013-02-18 21:03:00,
2013-02-18 16:12:00,31.0,5.0,30.04,WNW,302,6.0,7.0,32,0.00,,,0.00,,2013-02-18 21:12:00,
2013-02-18 16:22:00,33.0,6.0,30.05,WSW,258,8.0,9.0,32,0.00,,,0.00,,2013-02-18 21:22:00,
2013-02-18 16:32:00,33.0,6.0,30.05,West,270,4.0,12.0,32,0.00,,,0.00,,2013-02-18 21:32:00,
2013-02-18 16:42:00,33.0,6.0,30.05,West,270,4.0,12.0,32,0.00,,,0.00,,2013-02-18 21:42:00,
2013-02-18 16:53:00,33.0,6.0,30.06,WSW,248,6.0,8.0,31,0.00,,,0.00,,2013-02-18 21:53:00,
2013-02-18 17:03:00,32.0,5.0,30.06,WNW,289,5.0,7.0,31,0.00,,,0.00,,2013-02-18 22:03:00,
2013-02-18 17:12:00,31.0,5.0,30.07,WNW,293,0.0,10.0,32,0.00,,,0.00,,2013-02-18 22:12:00,
2013-02-18 17:22:00,31.0,5.0,30.07,WNW,293,0.0,10.0,32,0.00,,,0.00,,2013-02-18 22:22:00,
2013-02-18 17:33:00,29.0,4.0,30.07,NW,315,5.0,8.0,33,0.00,,,0.00,,2013-02-18 22:33:00,
2013-02-18 17:43:00,29.0,4.0,30.07,NW,315,5.0,8.0,33,0.00,,,0.00,,2013-02-18 22:43:00,
2013-02-18 17:52:00,27.0,3.0,30.08,West,270,3.0,10.0,35,0.00,,,0.00,,2013-02-18 22:52:00,
2013-02-18 18:03:00,27.0,3.0,30.08,West,270,3.0,10.0,35,0.00,,,0.00,,2013-02-18 23:03:00,
2013-02-18 18:12:00,27.0,3.0,30.08,West,270,3.0,10.0,35,0.00,,,0.00,,2013-02-18 23:12:00,
2013-02-18 18:34:00,26.0,3.0,30.09,WNW,283,2.0,4.0,36,0.00,,,0.00,,2013-02-18 23:34:00,
2013-02-18 18:43:00,26.0,3.0,30.09,WNW,283,2.0,4.0,36,0.00,,,0.00,,2013-02-18 23:43:00,
2013-02-18 18:52:00,25.0,2.0,30.10,WNW,284,3.0,3.0,37,0.00,,,0.00,,2013-02-18 23:52:00,
2013-02-18 19:03:00,25.0,2.0,30.10,WNW,293,0.0,6.0,37,0.00,,,0.00,,2013-02-19 00:03:00,
2013-02-18 19:22:00,25.0,3.0,30.11,West,270,0.0,5.0,38,0.00,,,0.00,,2013-02-19 00:22:00,
2013-02-18 19:35:00,25.0,3.0,30.11,WNW,293,1.0,3.0,38,0.00,,,0.00,,2013-02-19 00:35:00,
2013-02-18 19:43:00,25.0,3.0,30.11,WNW,293,1.0,3.0,38,0.00,,,0.00,,2013-02-19 00:43:00,
2013-02-18 19:53:00,25.0,3.0,30.11,West,280,4.0,5.0,38,0.00,,,0.00,,2013-02-19 00:53:00,
2013-02-18 20:03:00,25.0,3.0,30.11,West,280,4.0,5.0,38,0.00,,,0.00,,2013-02-19 01:03:00,
2013-02-18 20:14:00,25.0,3.0,30.11,West,280,4.0,5.0,38,0.00,,,0.00,,2013-02-19 01:14:00,
2013-02-18 20:24:00,24.0,3.0,30.12,NW,315,5.0,5.0,39,0.00,,,0.00,,2013-02-19 01:24:00,
2013-02-18 20:35:00,24.0,3.0,30.12,WSW,256,3.0,6.0,40,0.00,,,0.00,,2013-02-19 01:35:00,
2013-02-18 20:44:00,24.0,3.0,30.12,WSW,256,3.0,6.0,40,0.00,,,0.00,,2013-02-19 01:44:00,
2013-02-18 20:54:00,24.0,3.0,30.12,WSW,256,3.0,6.0,40,0.00,,,0.00,,2013-02-19 01:54:00,
2013-02-18 21:04:00,24.0,3.0,30.13,WNW,293,0.0,4.0,40,0.00,,,0.00,,2013-02-19 02:04:00,
2013-02-18 21:14:00,24.0,3.0,30.13,WNW,293,0.0,4.0,40,0.00,,,0.00,,2013-02-19 02:14:00,
2013-02-18 21:23:00,23.0,3.0,30.13,West,270,0.0,0.0,41,0.00,,,0.00,,2013-02-19 02:23:00,
2013-02-18 21:35:00,23.0,3.0,30.14,WNW,293,0.0,0.0,41,0.00,,,0.00,,2013-02-19 02:35:00,
2013-02-18 21:53:00,23.0,3.0,30.14,West,270,0.0,0.0,42,0.00,,,0.00,,2013-02-19 02:53:00,
2013-02-18 22:07:00,22.0,2.0,30.14,West,270,0.0,0.0,42,0.00,,,0.00,,2013-02-19 03:07:00,
2013-02-18 22:14:00,22.0,2.0,30.14,West,270,0.0,0.0,42,0.00,,,0.00,,2013-02-19 03:14:00,
2013-02-18 22:24:00,22.0,2.0,30.14,West,270,0.0,0.0,42,0.00,,,0.00,,2013-02-19 03:24:00,
2013-02-18 22:34:00,22.0,3.0,30.15,West,270,0.0,0.0,43,0.00,,,0.00,,2013-02-19 03:34:00,
2013-02-18 22:44:00,22.0,3.0,30.15,West,270,0.0,0.0,43,0.00,,,0.00,,2013-02-19 03:44:00,
2013-02-18 23:03:00,21.0,3.0,30.14,WNW,293,0.0,0.0,44,0.00,,,0.00,,2013-02-19 04:03:00,
2013-02-18 23:14:00,21.0,3.0,30.14,WNW,293,0.0,0.0,44,0.00,,,0.00,,2013-02-19 04:14:00,
2013-02-18 23:23:00,21.0,3.0,30.14,WNW,293,0.0,0.0,45,0.00,,,0.00,,2013-02-19 04:23:00,
2013-02-18 23:34:00,21.0,3.0,30.14,WNW,293,0.0,0.0,45,0.00,,,0.00,,2013-02-19 04:34:00,
2013-02-18 23:43:00,21.0,3.0,30.14,WNW,293,0.0,0.0,45,0.00,,,0.00,,2013-02-19 04:43:00,
2013-02-18 23:55:00,22.0,4.0,30.14,WNW,293,0.0,0.0,45,0.00,,,0.00,,2013-02-19 04:55:00,